createdAt,value
2018-12-16T00:01:49.322Z,0.70
2018-12-16T00:04:17.737Z,0.70
2018-12-16T00:06:46.256Z,0.70
2018-12-16T00:09:14.820Z,0.70
2018-12-16T00:11:43.358Z,0.70
2018-12-16T00:14:11.913Z,0.70
2018-12-16T00:16:40.392Z,0.80
2018-12-16T00:19:08.861Z,0.80
2018-12-16T00:21:37.302Z,0.80
2018-12-16T00:24:05.813Z,0.80
2018-12-16T00:26:45.567Z,0.70
2018-12-16T00:29:14.102Z,0.70
2018-12-16T00:31:42.568Z,0.70
2018-12-16T00:34:11.030Z,0.70
2018-12-16T00:36:39.590Z,0.70
2018-12-16T00:39:08.235Z,0.70
2018-12-16T00:41:36.684Z,0.70
2018-12-16T00:44:05.200Z,0.80
2018-12-16T00:46:33.719Z,0.70
2018-12-16T00:49:02.176Z,0.70
2018-12-16T00:51:30.712Z,0.70
2018-12-16T00:53:59.140Z,0.80
2018-12-16T00:56:27.598Z,0.70
2018-12-16T00:58:56.186Z,0.70
2018-12-16T01:01:24.740Z,0.70
2018-12-16T01:03:53.234Z,0.70
2018-12-16T01:06:21.917Z,0.70
2018-12-16T01:08:50.563Z,0.70
2018-12-16T01:11:19.891Z,0.80
2018-12-16T01:13:48.383Z,0.80
2018-12-16T01:16:16.852Z,0.80
2018-12-16T01:18:45.372Z,0.80
2018-12-16T01:21:13.840Z,0.80
2018-12-16T01:23:42.333Z,0.80
2018-12-16T01:26:10.858Z,0.80
2018-12-16T01:28:39.286Z,0.80
2018-12-16T01:31:07.783Z,0.80
2018-12-16T01:33:36.401Z,0.80
2018-12-16T01:36:04.944Z,0.80
2018-12-16T01:38:33.384Z,0.80
2018-12-16T01:41:01.955Z,0.80
2018-12-16T01:43:30.408Z,0.80
2018-12-16T01:45:58.918Z,0.80
2018-12-16T01:48:27.364Z,0.80
2018-12-16T01:50:55.847Z,0.80
2018-12-16T01:53:24.366Z,0.80
2018-12-16T01:55:52.857Z,0.90
2018-12-16T01:58:21.301Z,0.80
2018-12-16T02:00:49.816Z,0.90
2018-12-16T02:03:18.286Z,0.80
2018-12-16T02:05:46.811Z,0.90
2018-12-16T02:08:15.313Z,0.90
2018-12-16T02:10:43.831Z,0.90
2018-12-16T02:13:12.297Z,0.80
2018-12-16T02:15:40.850Z,0.80
2018-12-16T02:18:09.348Z,0.80
2018-12-16T02:20:37.774Z,0.70
2018-12-16T02:23:06.430Z,0.60
2018-12-16T02:25:34.864Z,0.50
2018-12-16T02:28:03.431Z,0.40
2018-12-16T02:30:31.928Z,0.20
2018-12-16T02:33:00.424Z,0.10
2018-12-16T02:35:29.336Z,0.00
2018-12-16T02:37:57.796Z,-0.10
2018-12-16T02:40:26.236Z,-0.20
2018-12-16T02:42:54.979Z,-0.20
2018-12-16T02:45:23.479Z,-0.20
2018-12-16T02:47:52.004Z,-0.20
2018-12-16T02:50:20.456Z,-0.20
2018-12-16T02:52:48.942Z,-0.20
2018-12-16T02:55:17.457Z,-0.20
2018-12-16T02:57:45.959Z,-0.10
2018-12-16T03:00:14.564Z,-0.10
2018-12-16T03:02:43.086Z,-0.10
2018-12-16T03:05:11.573Z,-0.10
2018-12-16T03:07:40.022Z,-0.10
2018-12-16T03:10:08.765Z,0.00
2018-12-16T03:12:37.257Z,0.00
2018-12-16T03:15:06.291Z,0.00
2018-12-16T03:17:34.882Z,0.00
2018-12-16T03:20:03.799Z,0.00
2018-12-16T03:22:32.237Z,0.00
2018-12-16T03:25:00.745Z,-0.10
2018-12-16T03:27:29.254Z,0.00
2018-12-16T03:29:57.822Z,-0.10
2018-12-16T03:32:26.299Z,-0.10
2018-12-16T03:34:54.885Z,-0.20
2018-12-16T03:37:23.361Z,-0.20
2018-12-16T03:39:51.841Z,-0.20
2018-12-16T03:42:20.282Z,-0.20
2018-12-16T03:44:48.843Z,-0.20
2018-12-16T03:47:17.343Z,-0.20
2018-12-16T03:49:45.820Z,-0.20
2018-12-16T03:52:14.326Z,-0.20
2018-12-16T03:54:42.768Z,-0.30
2018-12-16T03:57:11.371Z,-0.30
2018-12-16T03:59:39.903Z,-0.30
2018-12-16T04:02:08.371Z,-0.30
2018-12-16T04:04:36.902Z,-0.30
2018-12-16T04:07:05.549Z,-0.30
2018-12-16T04:09:34.040Z,-0.30
2018-12-16T04:12:03.294Z,-0.30
2018-12-16T04:14:31.780Z,-0.30
2018-12-16T04:17:00.262Z,-0.20
2018-12-16T04:19:29.190Z,-0.30
2018-12-16T04:21:57.681Z,-0.40
2018-12-16T04:24:26.110Z,-0.40
2018-12-16T04:26:54.599Z,-0.40
2018-12-16T04:29:23.079Z,-0.40
2018-12-16T04:31:51.538Z,-0.40
2018-12-16T04:34:20.058Z,-0.40
2018-12-16T04:36:48.661Z,-0.50
2018-12-16T04:39:17.239Z,-0.40
2018-12-16T04:41:45.686Z,-0.50
2018-12-16T04:44:14.195Z,-0.40
2018-12-16T04:46:42.632Z,-0.40
2018-12-16T04:49:11.078Z,-0.40
2018-12-16T04:51:39.804Z,-0.50
2018-12-16T04:54:08.288Z,-0.50
2018-12-16T04:56:36.728Z,-0.50
2018-12-16T04:59:05.179Z,-0.50
2018-12-16T05:01:33.677Z,-0.50
2018-12-16T05:04:02.144Z,-0.50
2018-12-16T05:06:30.686Z,-0.50
2018-12-16T05:08:59.211Z,-0.50
2018-12-16T05:11:27.668Z,-0.40
2018-12-16T05:13:56.707Z,-0.40
2018-12-16T05:16:25.160Z,-0.40
2018-12-16T05:18:53.627Z,-0.40
2018-12-16T05:21:22.122Z,-0.30
2018-12-16T05:23:50.562Z,-0.40
2018-12-16T05:26:19.751Z,-0.40
2018-12-16T05:28:48.236Z,-0.40
2018-12-16T05:31:16.714Z,-0.40
2018-12-16T05:33:45.208Z,-0.30
2018-12-16T05:36:13.869Z,-0.40
2018-12-16T05:38:42.386Z,-0.30
2018-12-16T05:41:10.904Z,-0.30
2018-12-16T05:43:39.388Z,-0.40
2018-12-16T05:46:07.885Z,-0.40
2018-12-16T05:48:36.342Z,-0.40
2018-12-16T05:51:05.350Z,-0.40
2018-12-16T05:53:34.982Z,-0.40
2018-12-16T05:56:03.425Z,-0.40
2018-12-16T05:58:31.887Z,-0.40
2018-12-16T06:01:00.382Z,-0.40
2018-12-16T06:03:29.039Z,-0.40
2018-12-16T06:05:57.569Z,-0.30
2018-12-16T06:08:26.099Z,-0.30
2018-12-16T06:10:54.600Z,-0.30
2018-12-16T06:13:23.071Z,-0.30
2018-12-16T06:15:51.538Z,-0.30
2018-12-16T06:18:20.041Z,-0.30
2018-12-16T06:20:48.559Z,-0.30
2018-12-16T06:23:17.187Z,-0.30
2018-12-16T06:25:45.790Z,-0.30
2018-12-16T06:28:14.259Z,-0.30
2018-12-16T06:30:43.189Z,-0.30
2018-12-16T06:33:11.757Z,-0.20
2018-12-16T06:35:40.236Z,-0.30
2018-12-16T06:38:08.712Z,-0.30
2018-12-16T06:40:37.145Z,-0.20
2018-12-16T06:43:05.586Z,-0.20
2018-12-16T06:45:34.066Z,-0.20
2018-12-16T06:48:02.507Z,-0.20
2018-12-16T06:50:31.070Z,-0.10
2018-12-16T06:52:59.528Z,-0.20
2018-12-16T06:55:28.065Z,-0.20
2018-12-16T06:57:56.512Z,-0.20
2018-12-16T07:00:25.108Z,-0.20
2018-12-16T07:02:54.364Z,-0.10
2018-12-16T07:05:22.899Z,0.00
2018-12-16T07:07:51.404Z,0.00
2018-12-16T07:10:20.088Z,0.00
2018-12-16T07:12:48.571Z,0.00
2018-12-16T07:15:17.156Z,0.00
2018-12-16T07:17:45.655Z,0.00
2018-12-16T07:20:14.270Z,0.00
2018-12-16T07:22:42.786Z,0.10
2018-12-16T07:25:11.251Z,0.10
2018-12-16T07:27:39.850Z,0.10
2018-12-16T07:30:08.998Z,0.10
2018-12-16T07:32:37.464Z,0.20
2018-12-16T07:35:06.057Z,0.10
2018-12-16T07:37:34.544Z,0.20
2018-12-16T07:40:03.244Z,0.20
2018-12-16T07:42:31.812Z,0.20
2018-12-16T07:45:00.281Z,0.20
2018-12-16T07:47:29.136Z,0.20
2018-12-16T07:49:57.794Z,0.20
2018-12-16T07:52:26.245Z,0.20
2018-12-16T07:54:54.761Z,0.20
2018-12-16T07:57:23.311Z,0.30
2018-12-16T07:59:52.001Z,0.30
2018-12-16T08:02:20.555Z,0.30
2018-12-16T08:04:49.242Z,0.30
2018-12-16T08:07:17.803Z,0.30
2018-12-16T08:09:46.288Z,0.40
2018-12-16T08:12:14.885Z,0.30
2018-12-16T08:14:43.573Z,0.40
2018-12-16T08:17:12.196Z,0.40
2018-12-16T08:19:40.834Z,0.40
2018-12-16T08:22:09.358Z,0.40
2018-12-16T08:24:37.845Z,0.40
2018-12-16T08:27:06.428Z,0.40
2018-12-16T08:29:35.238Z,0.40
2018-12-16T08:32:03.859Z,0.50
2018-12-16T08:34:32.497Z,0.50
2018-12-16T08:37:00.996Z,0.50
2018-12-16T08:39:29.526Z,0.40
2018-12-16T08:41:58.007Z,0.40
2018-12-16T08:44:26.531Z,0.50
2018-12-16T08:46:55.020Z,0.40
2018-12-16T08:49:23.674Z,0.50
2018-12-16T08:51:52.303Z,0.40
2018-12-16T08:54:20.878Z,0.40
2018-12-16T08:56:49.361Z,0.40
2018-12-16T08:59:17.921Z,0.40
2018-12-16T09:01:46.335Z,0.40
2018-12-16T09:04:15.200Z,0.40
2018-12-16T09:06:43.663Z,0.40
2018-12-16T09:09:12.616Z,0.30
2018-12-16T09:11:41.390Z,0.40
2018-12-16T09:14:09.872Z,0.40
2018-12-16T09:16:38.299Z,0.40
2018-12-16T09:19:07.034Z,0.40
2018-12-16T09:21:35.479Z,0.40
2018-12-16T09:24:04.085Z,0.50
2018-12-16T09:26:32.612Z,0.60
2018-12-16T09:29:01.110Z,0.50
2018-12-16T09:31:29.572Z,0.50
2018-12-16T09:33:58.132Z,0.60
2018-12-16T09:36:26.555Z,0.70
2018-12-16T09:38:55.036Z,0.70
2018-12-16T09:41:23.592Z,0.70
2018-12-16T09:43:52.167Z,0.60
2018-12-16T09:46:20.651Z,0.70
2018-12-16T09:48:49.132Z,0.70
2018-12-16T09:51:18.218Z,0.70
2018-12-16T09:53:46.757Z,0.80
2018-12-16T09:56:15.221Z,0.80
2018-12-16T09:58:43.773Z,0.80
2018-12-16T10:01:12.233Z,0.80
2018-12-16T10:03:40.712Z,0.90
2018-12-16T10:06:09.219Z,0.90
2018-12-16T10:08:37.936Z,1.00
2018-12-16T10:11:06.630Z,1.00
2018-12-16T10:13:35.240Z,1.00
2018-12-16T10:16:03.902Z,1.00
2018-12-16T10:18:32.418Z,1.00
2018-12-16T10:21:00.915Z,1.00
2018-12-16T10:23:29.526Z,1.00
2018-12-16T10:25:58.342Z,1.00
2018-12-16T10:28:26.927Z,1.00
2018-12-16T10:30:55.487Z,1.10
2018-12-16T10:33:24.046Z,1.20
2018-12-16T10:35:52.515Z,1.20
2018-12-16T10:38:21.071Z,1.20
2018-12-16T10:40:49.770Z,1.20
2018-12-16T10:43:18.240Z,1.20
2018-12-16T10:45:46.814Z,1.20
2018-12-16T10:48:15.446Z,1.30
2018-12-16T10:50:43.957Z,1.30
2018-12-16T10:53:12.493Z,1.30
2018-12-16T10:55:41.302Z,1.40
2018-12-16T10:58:09.977Z,1.30
2018-12-16T11:00:43.952Z,1.30
2018-12-16T11:03:12.780Z,1.30
2018-12-16T11:05:41.653Z,1.40
2018-12-16T11:08:10.316Z,1.40
2018-12-16T11:10:39.326Z,1.50
2018-12-16T11:13:08.350Z,1.50
2018-12-16T11:15:36.886Z,1.60
2018-12-16T11:18:05.423Z,1.60
2018-12-16T11:20:34.004Z,1.60
2018-12-16T11:23:02.693Z,1.70
2018-12-16T11:25:32.107Z,1.70
2018-12-16T11:28:00.535Z,1.70
2018-12-16T11:30:29.435Z,1.60
2018-12-16T11:32:57.909Z,1.60
2018-12-16T11:35:26.557Z,1.60
2018-12-16T11:37:55.189Z,1.60
2018-12-16T11:40:23.774Z,1.50
2018-12-16T11:42:52.352Z,1.50
2018-12-16T11:45:20.936Z,1.50
2018-12-16T11:47:49.728Z,1.50
2018-12-16T11:50:19.090Z,1.60
2018-12-16T11:52:47.578Z,1.60
2018-12-16T11:55:16.329Z,1.70
2018-12-16T11:57:45.460Z,1.70
2018-12-16T12:00:14.140Z,1.70
2018-12-16T12:02:42.595Z,1.70
2018-12-16T12:05:11.394Z,1.70
2018-12-16T12:07:40.350Z,1.60
2018-12-16T12:10:09.134Z,1.60
2018-12-16T12:12:37.668Z,1.50
2018-12-16T12:15:06.469Z,1.60
2018-12-16T12:17:35.043Z,1.60
2018-12-16T12:20:04.176Z,1.70
2018-12-16T12:22:32.684Z,1.70
2018-12-16T12:25:01.195Z,1.70
2018-12-16T12:27:29.706Z,1.60
2018-12-16T12:29:58.300Z,1.60
2018-12-16T12:32:26.858Z,1.60
2018-12-16T12:34:55.827Z,1.60
2018-12-16T12:37:24.314Z,1.50
2018-12-16T12:39:52.892Z,1.60
2018-12-16T12:42:21.440Z,1.60
2018-12-16T12:44:49.951Z,1.60
2018-12-16T12:47:18.556Z,1.60
2018-12-16T12:49:47.040Z,1.70
2018-12-16T12:52:15.538Z,1.70
2018-12-16T12:54:44.269Z,1.80
2018-12-16T12:57:12.817Z,1.90
2018-12-16T12:59:41.409Z,1.90
2018-12-16T13:02:09.948Z,1.90
2018-12-16T13:04:38.471Z,1.80
2018-12-16T13:07:06.977Z,1.80
2018-12-16T13:09:35.446Z,1.90
2018-12-16T13:12:03.910Z,1.90
2018-12-16T13:14:32.416Z,1.90
2018-12-16T13:17:00.980Z,1.90
2018-12-16T13:19:30.130Z,1.90
2018-12-16T13:21:58.628Z,1.80
2018-12-16T13:24:27.114Z,1.90
2018-12-16T13:26:55.909Z,2.00
2018-12-16T13:29:24.548Z,2.00
2018-12-16T13:31:53.038Z,1.90
2018-12-16T13:34:21.806Z,2.00
2018-12-16T13:36:50.247Z,2.00
2018-12-16T13:39:18.799Z,2.00
2018-12-16T13:41:47.419Z,2.00
2018-12-16T13:44:15.940Z,1.90
2018-12-16T13:46:44.502Z,1.90
2018-12-16T13:49:12.965Z,1.90
2018-12-16T13:51:41.487Z,2.00
2018-12-16T13:54:10.709Z,2.00
2018-12-16T13:56:39.183Z,2.10
2018-12-16T13:59:07.640Z,2.20
2018-12-16T14:01:36.165Z,2.20
2018-12-16T14:04:04.714Z,2.10
2018-12-16T14:06:33.233Z,2.20
2018-12-16T14:09:02.169Z,2.10
2018-12-16T14:11:30.880Z,2.20
2018-12-16T14:13:59.489Z,2.10
2018-12-16T14:16:28.034Z,2.10
2018-12-16T14:18:56.561Z,2.00
2018-12-16T14:21:25.114Z,2.00
2018-12-16T14:23:53.590Z,2.00
2018-12-16T14:26:22.213Z,2.00
2018-12-16T14:28:50.724Z,2.10
2018-12-16T14:31:19.220Z,2.10
2018-12-16T14:33:48.559Z,2.10
2018-12-16T14:36:17.595Z,2.20
2018-12-16T14:38:47.287Z,2.10
2018-12-16T14:41:15.759Z,2.20
2018-12-16T14:43:44.367Z,2.10
2018-12-16T14:46:12.906Z,2.10
2018-12-16T14:48:41.444Z,2.10
2018-12-16T14:51:09.938Z,2.10
2018-12-16T14:53:38.544Z,2.10
2018-12-16T14:56:07.065Z,2.10
2018-12-16T14:58:35.718Z,2.10
2018-12-16T15:01:04.292Z,2.10
2018-12-16T15:03:32.972Z,2.10
2018-12-16T15:06:01.606Z,2.20
2018-12-16T15:08:30.124Z,2.30
2018-12-16T15:10:58.901Z,2.30
2018-12-16T15:13:27.395Z,2.30
2018-12-16T15:15:55.902Z,2.30
2018-12-16T15:18:24.334Z,2.40
2018-12-16T15:20:52.890Z,2.30
2018-12-16T15:23:22.045Z,2.30
2018-12-16T15:25:50.538Z,2.40
2018-12-16T15:28:19.188Z,2.40
2018-12-16T15:30:47.839Z,2.30
2018-12-16T15:33:16.301Z,2.40
2018-12-16T15:35:45.788Z,2.40
2018-12-16T15:38:14.291Z,2.40
2018-12-16T15:40:42.814Z,2.50
2018-12-16T15:43:11.281Z,2.40
2018-12-16T15:45:39.901Z,2.40
2018-12-16T15:48:08.367Z,2.40
2018-12-16T15:50:36.874Z,2.40
2018-12-16T15:53:05.563Z,2.40
2018-12-16T15:55:34.110Z,2.40
2018-12-16T15:58:02.646Z,2.40
2018-12-16T16:00:31.487Z,2.40
2018-12-16T16:03:00.017Z,2.40
2018-12-16T16:05:28.460Z,2.40
2018-12-16T16:07:57.240Z,2.30
2018-12-16T16:10:25.859Z,2.30
2018-12-16T16:12:55.045Z,2.30
2018-12-16T16:15:23.937Z,2.40
2018-12-16T16:17:53.416Z,2.40
2018-12-16T16:20:21.988Z,2.50
2018-12-16T16:22:51.281Z,2.40
2018-12-16T16:25:19.732Z,2.50
2018-12-16T16:27:49.254Z,2.50
2018-12-16T16:30:18.414Z,2.50
2018-12-16T16:32:46.935Z,2.50
2018-12-16T16:35:15.446Z,2.50
2018-12-16T16:37:44.206Z,2.60
2018-12-16T16:40:12.838Z,2.60
2018-12-16T16:42:41.343Z,2.70
2018-12-16T16:45:10.036Z,2.70
2018-12-16T16:47:38.656Z,2.70
2018-12-16T16:50:07.479Z,2.70
2018-12-16T16:52:36.148Z,2.70
2018-12-16T16:55:04.987Z,2.80
2018-12-16T16:57:33.526Z,2.80
2018-12-16T17:00:02.169Z,2.80
2018-12-16T17:02:30.636Z,2.80
2018-12-16T17:04:59.118Z,2.90
2018-12-16T17:07:27.634Z,2.80
2018-12-16T17:09:56.258Z,2.90
2018-12-16T17:12:24.696Z,2.90
2018-12-16T17:14:53.201Z,2.90
2018-12-16T17:17:22.381Z,2.90
2018-12-16T17:19:51.446Z,2.90
2018-12-16T17:22:19.872Z,2.90
2018-12-16T17:24:48.335Z,3.00
2018-12-16T17:27:16.845Z,3.00
2018-12-16T17:29:45.398Z,3.00
2018-12-16T17:32:13.840Z,3.00
2018-12-16T17:34:42.298Z,3.00
2018-12-16T17:37:10.890Z,3.00
2018-12-16T17:39:40.520Z,2.90
2018-12-16T17:42:09.031Z,3.00
2018-12-16T17:44:37.714Z,3.00
2018-12-16T17:47:06.337Z,3.00
2018-12-16T17:49:34.873Z,3.00
2018-12-16T17:52:03.428Z,3.10
2018-12-16T17:54:31.900Z,3.10
2018-12-16T17:57:00.695Z,3.10
2018-12-16T17:59:29.206Z,3.10
2018-12-16T18:01:58.125Z,3.20
2018-12-16T18:04:26.635Z,3.20
2018-12-16T18:06:55.162Z,3.20
2018-12-16T18:09:23.693Z,3.20
2018-12-16T18:11:52.286Z,3.20
2018-12-16T18:14:20.786Z,3.20
2018-12-16T18:16:49.336Z,3.20
2018-12-16T18:19:18.259Z,3.10
2018-12-16T18:21:46.755Z,3.20
2018-12-16T18:24:15.194Z,3.20
2018-12-16T18:26:44.341Z,3.30
2018-12-16T18:29:13.063Z,3.30
2018-12-16T18:31:41.529Z,3.30
2018-12-16T18:34:10.003Z,3.30
2018-12-16T18:36:39.263Z,3.30
2018-12-16T18:39:09.808Z,3.40
2018-12-16T18:41:39.298Z,3.30
2018-12-16T18:44:08.610Z,3.30
2018-12-16T18:46:37.122Z,3.30
2018-12-16T18:49:05.857Z,3.20
2018-12-16T18:51:34.844Z,3.30
2018-12-16T18:54:03.346Z,3.30
2018-12-16T18:56:32.131Z,3.30
2018-12-16T18:59:00.674Z,3.20
2018-12-16T19:01:29.162Z,3.20
2018-12-16T19:03:58.290Z,3.20
2018-12-16T19:06:26.835Z,3.20
2018-12-16T19:08:55.450Z,3.30
2018-12-16T19:11:23.992Z,3.30
2018-12-16T19:13:52.574Z,3.30
2018-12-16T19:16:21.194Z,3.30
2018-12-16T19:18:50.356Z,3.30
2018-12-16T19:21:18.872Z,3.20
2018-12-16T19:23:47.368Z,3.30
2018-12-16T19:26:16.063Z,3.30
2018-12-16T19:28:45.180Z,3.20
2018-12-16T19:31:13.731Z,3.30
2018-12-16T19:33:42.177Z,3.30
2018-12-16T19:36:10.712Z,3.30
2018-12-16T19:38:39.181Z,3.30
2018-12-16T19:41:07.715Z,3.30
2018-12-16T19:43:36.361Z,3.30
2018-12-16T19:46:05.214Z,3.30
2018-12-16T19:48:34.488Z,3.30
2018-12-16T19:51:03.304Z,3.30
2018-12-16T19:53:31.765Z,3.30
2018-12-16T19:56:00.238Z,3.40
2018-12-16T19:58:29.175Z,3.30
2018-12-16T20:00:57.633Z,3.40
2018-12-16T20:03:26.160Z,3.30
2018-12-16T20:05:59.922Z,3.30
2018-12-16T20:08:28.471Z,3.30
2018-12-16T20:10:57.490Z,3.30
2018-12-16T20:13:26.002Z,3.40
2018-12-16T20:16:01.370Z,3.40
2018-12-16T20:18:25.494Z,3.40
2018-12-16T20:20:54.560Z,3.40
2018-12-16T20:23:23.105Z,3.40
2018-12-16T20:25:52.068Z,3.50
2018-12-16T20:28:21.195Z,3.50
2018-12-16T20:30:49.724Z,3.50
2018-12-16T20:33:18.597Z,3.50
2018-12-16T20:35:47.076Z,3.50
2018-12-16T20:38:15.843Z,3.50
2018-12-16T20:40:45.150Z,3.50
2018-12-16T20:43:14.821Z,3.50
2018-12-16T20:45:43.515Z,3.50
2018-12-16T20:48:12.108Z,3.50
2018-12-16T20:50:40.570Z,3.50
2018-12-16T20:53:09.073Z,3.50
2018-12-16T20:55:37.694Z,3.50
2018-12-16T20:58:06.124Z,3.50
2018-12-16T21:00:35.379Z,3.50
2018-12-16T21:03:03.896Z,3.40
2018-12-16T21:05:32.999Z,3.50
2018-12-16T21:08:01.655Z,3.50
2018-12-16T21:10:30.389Z,3.50
2018-12-16T21:13:04.044Z,3.40
2018-12-16T21:15:37.795Z,3.40
2018-12-16T21:18:12.084Z,3.40
2018-12-16T21:20:40.622Z,3.40
2018-12-16T21:23:09.130Z,3.40
2018-12-16T21:25:37.647Z,3.30
2018-12-16T21:28:06.759Z,3.40
2018-12-16T21:30:35.243Z,3.40
2018-12-16T21:33:03.755Z,3.40
2018-12-16T21:35:33.216Z,3.40
2018-12-16T21:38:01.695Z,3.40
2018-12-16T21:40:30.342Z,3.30
2018-12-16T21:42:58.811Z,3.40
2018-12-16T21:45:27.271Z,3.40
2018-12-16T21:47:55.725Z,3.40
2018-12-16T21:50:24.162Z,3.40
2018-12-16T21:52:52.665Z,3.40
2018-12-16T21:55:21.128Z,3.40
2018-12-16T21:57:49.618Z,3.40
2018-12-16T22:00:18.122Z,3.40
2018-12-16T22:02:46.594Z,3.40
2018-12-16T22:05:15.968Z,3.40
2018-12-16T22:07:45.456Z,3.40
2018-12-16T22:10:14.034Z,3.40
2018-12-16T22:12:43.475Z,3.30
2018-12-16T22:15:11.934Z,3.30
2018-12-16T22:17:40.602Z,3.30
2018-12-16T22:20:09.154Z,3.30
2018-12-16T22:22:37.646Z,3.20
2018-12-16T22:25:06.197Z,3.20
2018-12-16T22:27:40.176Z,3.10
2018-12-16T22:30:05.913Z,3.10
2018-12-16T22:32:34.383Z,3.10
2018-12-16T22:35:03.540Z,3.00
2018-12-16T22:37:32.173Z,2.90
2018-12-16T22:40:00.647Z,2.90
2018-12-16T22:42:29.254Z,2.90
2018-12-16T22:44:57.708Z,2.90
2018-12-16T22:47:27.358Z,2.90
2018-12-16T22:49:55.956Z,3.00
2018-12-16T22:52:24.380Z,3.00
2018-12-16T22:54:52.842Z,3.00
2018-12-16T22:57:21.304Z,3.00
2018-12-16T22:59:50.466Z,2.90
2018-12-16T23:02:18.905Z,2.90
2018-12-16T23:04:47.457Z,3.00
2018-12-16T23:07:15.992Z,3.00
2018-12-16T23:09:44.477Z,3.00
2018-12-16T23:12:13.103Z,3.00
2018-12-16T23:14:41.855Z,3.00
2018-12-16T23:17:10.512Z,3.00
2018-12-16T23:19:39.564Z,3.10
2018-12-16T23:22:08.044Z,3.20
2018-12-16T23:24:36.946Z,3.20
2018-12-16T23:27:05.438Z,3.30
2018-12-16T23:29:33.928Z,3.30
2018-12-16T23:32:02.420Z,3.30
2018-12-16T23:34:30.937Z,3.40
2018-12-16T23:36:59.491Z,3.40
2018-12-16T23:39:27.952Z,3.40
2018-12-16T23:41:56.475Z,3.50
2018-12-16T23:44:31.703Z,3.60
2018-12-16T23:47:00.211Z,3.50
2018-12-16T23:49:28.654Z,3.60
2018-12-16T23:51:57.132Z,3.70
2018-12-16T23:54:25.591Z,3.70
2018-12-16T23:56:54.107Z,3.70
2018-12-16T23:59:22.644Z,3.80
